Salekhard, Russia
Current Conditions -  °F | °C
As of 10:00 AM on Wednesday 22 Oct 2014 (Local Time) from USHH Reporting Station
Clear Clear  
Wind Chill: -2°   Ceiling: Unl
Heat Index:   Visibility: 6mi
Dew Point:   Wind: 4mph
Humidity: 79%   Direction: 270°W
Pressure: 29.88"   Gusts: NA
Location:  66.53°N, 66.6°E
Report Text: USHH 220500Z 27002MPS CAVOK M14/M17 Q1012 NOSIG RMK QFE75524////50
Loading
Personal Weather Stations






























Interactive Weather Map
Tropical Storm Tracking
New forecast layout! Learn more

10-Day Weather Forecast

Advertisements
Track Severe Weather on mobile